sensor_id;sensor_type;location;lat;lon;timestamp;P1;durP1;ratioP1;P2;durP2;ratioP2
1402;SDS011;696;48.546;9.896;2022-08-25T00:01:19;3.53;;;1.63;;
1402;SDS011;696;48.546;9.896;2022-08-25T00:03:53;4.18;;;1.70;;
1402;SDS011;696;48.546;9.896;2022-08-25T00:06:19;3.63;;;2.05;;
1402;SDS011;696;48.546;9.896;2022-08-25T00:08:45;1.88;;;1.75;;
1402;SDS011;696;48.546;9.896;2022-08-25T00:11:13;3.72;;;2.38;;
1402;SDS011;696;48.546;9.896;2022-08-25T00:13:41;2.88;;;1.60;;
1402;SDS011;696;48.546;9.896;2022-08-25T00:16:09;3.92;;;1.85;;
1402;SDS011;696;48.546;9.896;2022-08-25T00:18:35;2.35;;;1.92;;
1402;SDS011;696;48.546;9.896;2022-08-25T00:21:02;1.92;;;1.48;;
1402;SDS011;696;48.546;9.896;2022-08-25T00:23:28;4.93;;;2.17;;
1402;SDS011;696;48.546;9.896;2022-08-25T00:25:54;3.10;;;1.95;;
1402;SDS011;696;48.546;9.896;2022-08-25T00:28:19;3.45;;;2.13;;
1402;SDS011;696;48.546;9.896;2022-08-25T00:30:45;4.03;;;1.60;;
1402;SDS011;696;48.546;9.896;2022-08-25T00:33:10;3.17;;;2.13;;
1402;SDS011;696;48.546;9.896;2022-08-25T00:35:36;2.22;;;1.67;;
1402;SDS011;696;48.546;9.896;2022-08-25T00:38:02;3.17;;;2.03;;
1402;SDS011;696;48.546;9.896;2022-08-25T00:40:28;3.97;;;2.28;;
1402;SDS011;696;48.546;9.896;2022-08-25T00:42:55;3.03;;;2.00;;
1402;SDS011;696;48.546;9.896;2022-08-25T00:45:20;6.82;;;2.30;;
1402;SDS011;696;48.546;9.896;2022-08-25T00:47:47;4.00;;;1.90;;
1402;SDS011;696;48.546;9.896;2022-08-25T00:50:12;8.57;;;2.17;;
1402;SDS011;696;48.546;9.896;2022-08-25T00:52:40;3.97;;;1.77;;
1402;SDS011;696;48.546;9.896;2022-08-25T00:55:16;1.75;;;1.33;;
1402;SDS011;696;48.546;9.896;2022-08-25T00:58:04;2.15;;;1.33;;
1402;SDS011;696;48.546;9.896;2022-08-25T01:00:39;2.83;;;1.55;;
1402;SDS011;696;48.546;9.896;2022-08-25T01:03:09;3.33;;;2.17;;
1402;SDS011;696;48.546;9.896;2022-08-25T01:05:36;6.22;;;2.40;;
1402;SDS011;696;48.546;9.896;2022-08-25T01:08:02;2.40;;;1.95;;
1402;SDS011;696;48.546;9.896;2022-08-25T01:10:31;2.67;;;1.52;;
1402;SDS011;696;48.546;9.896;2022-08-25T01:13:04;3.20;;;2.40;;
1402;SDS011;696;48.546;9.896;2022-08-25T01:15:32;4.53;;;1.98;;
1402;SDS011;696;48.546;9.896;2022-08-25T01:17:58;3.13;;;1.80;;
1402;SDS011;696;48.546;9.896;2022-08-25T01:20:24;3.42;;;2.50;;
1402;SDS011;696;48.546;9.896;2022-08-25T01:22:52;5.05;;;1.88;;
1402;SDS011;696;48.546;9.896;2022-08-25T01:28:19;3.45;;;1.98;;
1402;SDS011;696;48.546;9.896;2022-08-25T01:30:45;3.58;;;2.05;;
1402;SDS011;696;48.546;9.896;2022-08-25T01:33:11;3.90;;;1.95;;
1402;SDS011;696;48.546;9.896;2022-08-25T01:35:37;4.97;;;1.92;;
1402;SDS011;696;48.546;9.896;2022-08-25T01:38:05;5.68;;;2.17;;
1402;SDS011;696;48.546;9.896;2022-08-25T01:40:31;4.78;;;2.33;;
1402;SDS011;696;48.546;9.896;2022-08-25T01:45:40;3.53;;;2.05;;
1402;SDS011;696;48.546;9.896;2022-08-25T01:48:07;2.03;;;1.60;;
1402;SDS011;696;48.546;9.896;2022-08-25T01:50:33;4.32;;;2.35;;
1402;SDS011;696;48.546;9.896;2022-08-25T01:55:28;3.35;;;2.03;;
1402;SDS011;696;48.546;9.896;2022-08-25T01:57:54;3.13;;;2.45;;
1402;SDS011;696;48.546;9.896;2022-08-25T02:00:21;3.70;;;1.70;;
1402;SDS011;696;48.546;9.896;2022-08-25T02:02:47;3.55;;;2.53;;
1402;SDS011;696;48.546;9.896;2022-08-25T02:05:13;4.28;;;2.35;;
1402;SDS011;696;48.546;9.896;2022-08-25T02:07:40;4.03;;;2.22;;
1402;SDS011;696;48.546;9.896;2022-08-25T02:10:06;4.30;;;2.35;;
1402;SDS011;696;48.546;9.896;2022-08-25T02:12:32;5.18;;;3.20;;
1402;SDS011;696;48.546;9.896;2022-08-25T02:14:59;5.47;;;2.30;;
1402;SDS011;696;48.546;9.896;2022-08-25T02:17:25;3.80;;;2.13;;
1402;SDS011;696;48.546;9.896;2022-08-25T02:19:51;3.00;;;2.10;;
1402;SDS011;696;48.546;9.896;2022-08-25T02:22:17;8.95;;;2.92;;
1402;SDS011;696;48.546;9.896;2022-08-25T02:24:43;4.25;;;2.10;;
1402;SDS011;696;48.546;9.896;2022-08-25T02:27:10;3.42;;;1.88;;
1402;SDS011;696;48.546;9.896;2022-08-25T02:29:36;3.33;;;2.20;;
1402;SDS011;696;48.546;9.896;2022-08-25T02:32:01;3.42;;;2.20;;
1402;SDS011;696;48.546;9.896;2022-08-25T02:34:27;5.35;;;2.50;;
1402;SDS011;696;48.546;9.896;2022-08-25T02:36:52;3.60;;;2.35;;
1402;SDS011;696;48.546;9.896;2022-08-25T02:39:18;3.70;;;2.13;;
1402;SDS011;696;48.546;9.896;2022-08-25T02:41:43;4.43;;;2.38;;
1402;SDS011;696;48.546;9.896;2022-08-25T02:44:09;3.72;;;2.65;;
1402;SDS011;696;48.546;9.896;2022-08-25T02:46:34;3.25;;;2.30;;
1402;SDS011;696;48.546;9.896;2022-08-25T02:49:01;5.55;;;2.08;;
1402;SDS011;696;48.546;9.896;2022-08-25T02:51:28;3.25;;;2.38;;
1402;SDS011;696;48.546;9.896;2022-08-25T02:53:54;4.50;;;2.45;;
1402;SDS011;696;48.546;9.896;2022-08-25T02:56:21;4.75;;;2.47;;
1402;SDS011;696;48.546;9.896;2022-08-25T02:58:48;4.43;;;1.83;;
1402;SDS011;696;48.546;9.896;2022-08-25T03:01:13;4.18;;;2.20;;
1402;SDS011;696;48.546;9.896;2022-08-25T03:03:43;2.60;;;1.98;;
1402;SDS011;696;48.546;9.896;2022-08-25T03:06:10;4.88;;;2.58;;
1402;SDS011;696;48.546;9.896;2022-08-25T03:08:36;5.00;;;2.33;;
1402;SDS011;696;48.546;9.896;2022-08-25T03:11:02;2.70;;;2.13;;
1402;SDS011;696;48.546;9.896;2022-08-25T03:13:29;3.03;;;2.22;;
1402;SDS011;696;48.546;9.896;2022-08-25T03:15:56;3.95;;;2.50;;
1402;SDS011;696;48.546;9.896;2022-08-25T03:18:22;3.83;;;2.25;;
1402;SDS011;696;48.546;9.896;2022-08-25T03:20:48;5.32;;;3.08;;
1402;SDS011;696;48.546;9.896;2022-08-25T03:23:13;4.63;;;2.53;;
1402;SDS011;696;48.546;9.896;2022-08-25T03:25:39;9.98;;;2.60;;
1402;SDS011;696;48.546;9.896;2022-08-25T03:28:24;4.93;;;2.83;;
1402;SDS011;696;48.546;9.896;2022-08-25T03:30:50;4.47;;;2.75;;
1402;SDS011;696;48.546;9.896;2022-08-25T03:33:16;5.82;;;3.05;;
1402;SDS011;696;48.546;9.896;2022-08-25T03:35:41;4.22;;;2.42;;
1402;SDS011;696;48.546;9.896;2022-08-25T03:38:06;3.47;;;2.47;;
1402;SDS011;696;48.546;9.896;2022-08-25T03:40:32;4.88;;;2.50;;
1402;SDS011;696;48.546;9.896;2022-08-25T03:42:58;3.92;;;3.13;;
1402;SDS011;696;48.546;9.896;2022-08-25T03:45:23;6.65;;;3.17;;
1402;SDS011;696;48.546;9.896;2022-08-25T03:47:49;4.25;;;2.63;;
1402;SDS011;696;48.546;9.896;2022-08-25T03:50:16;4.57;;;2.72;;
1402;SDS011;696;48.546;9.896;2022-08-25T03:52:43;3.92;;;2.83;;
1402;SDS011;696;48.546;9.896;2022-08-25T03:55:10;5.00;;;3.13;;
1402;SDS011;696;48.546;9.896;2022-08-25T03:57:36;5.32;;;2.95;;
1402;SDS011;696;48.546;9.896;2022-08-25T04:00:03;8.20;;;3.15;;
1402;SDS011;696;48.546;9.896;2022-08-25T04:02:30;5.85;;;2.75;;
1402;SDS011;696;48.546;9.896;2022-08-25T04:04:57;5.93;;;2.78;;
1402;SDS011;696;48.546;9.896;2022-08-25T04:07:23;4.88;;;3.05;;
1402;SDS011;696;48.546;9.896;2022-08-25T04:09:48;5.43;;;3.30;;
1402;SDS011;696;48.546;9.896;2022-08-25T04:12:13;6.43;;;2.92;;
1402;SDS011;696;48.546;9.896;2022-08-25T04:14:39;7.05;;;3.08;;
1402;SDS011;696;48.546;9.896;2022-08-25T04:17:05;4.95;;;2.60;;
1402;SDS011;696;48.546;9.896;2022-08-25T04:19:30;7.57;;;3.67;;
1402;SDS011;696;48.546;9.896;2022-08-25T04:21:55;5.70;;;2.38;;
1402;SDS011;696;48.546;9.896;2022-08-25T04:24:21;5.32;;;2.70;;
1402;SDS011;696;48.546;9.896;2022-08-25T04:26:47;5.93;;;3.35;;
1402;SDS011;696;48.546;9.896;2022-08-25T04:29:15;4.28;;;3.42;;
1402;SDS011;696;48.546;9.896;2022-08-25T04:31:43;5.53;;;2.78;;
1402;SDS011;696;48.546;9.896;2022-08-25T04:34:10;6.05;;;2.97;;
1402;SDS011;696;48.546;9.896;2022-08-25T04:36:36;9.65;;;3.30;;
1402;SDS011;696;48.546;9.896;2022-08-25T04:39:02;6.65;;;4.05;;
1402;SDS011;696;48.546;9.896;2022-08-25T04:41:27;4.65;;;3.47;;
1402;SDS011;696;48.546;9.896;2022-08-25T04:43:55;3.95;;;2.90;;
1402;SDS011;696;48.546;9.896;2022-08-25T04:46:22;7.05;;;3.00;;
1402;SDS011;696;48.546;9.896;2022-08-25T04:48:50;4.70;;;3.50;;
1402;SDS011;696;48.546;9.896;2022-08-25T04:51:17;5.47;;;2.85;;
1402;SDS011;696;48.546;9.896;2022-08-25T04:53:44;7.63;;;3.85;;
1402;SDS011;696;48.546;9.896;2022-08-25T04:56:14;5.03;;;3.65;;
1402;SDS011;696;48.546;9.896;2022-08-25T04:58:41;7.38;;;3.63;;
1402;SDS011;696;48.546;9.896;2022-08-25T05:01:08;7.00;;;2.80;;
1402;SDS011;696;48.546;9.896;2022-08-25T05:03:35;7.80;;;3.63;;
1402;SDS011;696;48.546;9.896;2022-08-25T05:06:01;6.53;;;3.25;;
1402;SDS011;696;48.546;9.896;2022-08-25T05:08:27;5.05;;;3.33;;
1402;SDS011;696;48.546;9.896;2022-08-25T05:10:53;6.93;;;3.58;;
1402;SDS011;696;48.546;9.896;2022-08-25T05:13:20;5.43;;;3.03;;
1402;SDS011;696;48.546;9.896;2022-08-25T05:15:50;5.75;;;2.97;;
1402;SDS011;696;48.546;9.896;2022-08-25T05:18:17;5.25;;;2.55;;
1402;SDS011;696;48.546;9.896;2022-08-25T05:20:43;6.88;;;3.55;;
1402;SDS011;696;48.546;9.896;2022-08-25T05:23:09;6.22;;;3.45;;
1402;SDS011;696;48.546;9.896;2022-08-25T05:25:35;5.55;;;3.22;;
1402;SDS011;696;48.546;9.896;2022-08-25T05:28:00;8.07;;;4.00;;
1402;SDS011;696;48.546;9.896;2022-08-25T05:30:26;7.68;;;3.22;;
1402;SDS011;696;48.546;9.896;2022-08-25T05:32:51;7.82;;;3.20;;
1402;SDS011;696;48.546;9.896;2022-08-25T05:35:17;9.98;;;4.43;;
1402;SDS011;696;48.546;9.896;2022-08-25T05:37:44;7.28;;;3.65;;
1402;SDS011;696;48.546;9.896;2022-08-25T05:40:10;6.68;;;3.20;;
1402;SDS011;696;48.546;9.896;2022-08-25T05:42:35;6.35;;;3.10;;
1402;SDS011;696;48.546;9.896;2022-08-25T05:45:01;5.00;;;3.40;;
1402;SDS011;696;48.546;9.896;2022-08-25T05:47:27;6.90;;;3.72;;
1402;SDS011;696;48.546;9.896;2022-08-25T05:49:53;5.05;;;3.83;;
1402;SDS011;696;48.546;9.896;2022-08-25T05:52:18;4.53;;;3.40;;
1402;SDS011;696;48.546;9.896;2022-08-25T05:54:44;6.63;;;3.47;;
1402;SDS011;696;48.546;9.896;2022-08-25T05:57:09;8.35;;;3.35;;
1402;SDS011;696;48.546;9.896;2022-08-25T05:59:34;6.55;;;4.18;;
1402;SDS011;696;48.546;9.896;2022-08-25T06:02:00;6.95;;;3.45;;
1402;SDS011;696;48.546;9.896;2022-08-25T06:04:44;6.55;;;3.97;;
1402;SDS011;696;48.546;9.896;2022-08-25T06:07:09;7.70;;;4.10;;
1402;SDS011;696;48.546;9.896;2022-08-25T06:09:39;11.00;;;3.80;;
1402;SDS011;696;48.546;9.896;2022-08-25T06:12:05;8.45;;;4.97;;
1402;SDS011;696;48.546;9.896;2022-08-25T06:14:31;8.82;;;4.68;;
1402;SDS011;696;48.546;9.896;2022-08-25T06:16:57;5.57;;;4.53;;
1402;SDS011;696;48.546;9.896;2022-08-25T06:19:24;8.30;;;4.13;;
1402;SDS011;696;48.546;9.896;2022-08-25T06:21:51;13.05;;;4.28;;
1402;SDS011;696;48.546;9.896;2022-08-25T06:24:18;13.20;;;5.93;;
1402;SDS011;696;48.546;9.896;2022-08-25T06:26:43;8.07;;;5.40;;
1402;SDS011;696;48.546;9.896;2022-08-25T06:29:09;6.47;;;3.78;;
1402;SDS011;696;48.546;9.896;2022-08-25T06:31:34;6.55;;;4.00;;
1402;SDS011;696;48.546;9.896;2022-08-25T06:34:00;24.52;;;6.03;;
1402;SDS011;696;48.546;9.896;2022-08-25T06:36:25;6.47;;;3.90;;
1402;SDS011;696;48.546;9.896;2022-08-25T06:38:51;8.85;;;4.90;;
1402;SDS011;696;48.546;9.896;2022-08-25T06:41:16;8.30;;;4.95;;
1402;SDS011;696;48.546;9.896;2022-08-25T06:43:42;10.60;;;4.30;;
1402;SDS011;696;48.546;9.896;2022-08-25T06:46:12;18.83;;;5.55;;
1402;SDS011;696;48.546;9.896;2022-08-25T06:48:41;10.35;;;4.30;;
1402;SDS011;696;48.546;9.896;2022-08-25T06:51:08;10.70;;;5.28;;
1402;SDS011;696;48.546;9.896;2022-08-25T06:53:35;8.45;;;5.03;;
1402;SDS011;696;48.546;9.896;2022-08-25T06:56:00;14.07;;;5.00;;
1402;SDS011;696;48.546;9.896;2022-08-25T06:58:27;10.77;;;4.95;;
1402;SDS011;696;48.546;9.896;2022-08-25T07:00:53;8.32;;;4.38;;
1402;SDS011;696;48.546;9.896;2022-08-25T07:03:19;7.93;;;4.47;;
1402;SDS011;696;48.546;9.896;2022-08-25T07:05:51;8.48;;;4.90;;
1402;SDS011;696;48.546;9.896;2022-08-25T07:08:18;9.75;;;5.05;;
1402;SDS011;696;48.546;9.896;2022-08-25T07:10:44;6.30;;;4.10;;
1402;SDS011;696;48.546;9.896;2022-08-25T07:13:09;7.38;;;4.28;;
1402;SDS011;696;48.546;9.896;2022-08-25T07:15:38;8.60;;;4.45;;
1402;SDS011;696;48.546;9.896;2022-08-25T07:18:04;7.18;;;3.85;;
1402;SDS011;696;48.546;9.896;2022-08-25T07:20:30;8.18;;;4.63;;
1402;SDS011;696;48.546;9.896;2022-08-25T07:22:56;8.20;;;4.07;;
1402;SDS011;696;48.546;9.896;2022-08-25T07:25:22;6.93;;;3.92;;
1402;SDS011;696;48.546;9.896;2022-08-25T07:27:47;7.18;;;4.10;;
1402;SDS011;696;48.546;9.896;2022-08-25T07:30:13;7.60;;;4.28;;
1402;SDS011;696;48.546;9.896;2022-08-25T07:32:39;9.88;;;3.83;;
1402;SDS011;696;48.546;9.896;2022-08-25T07:35:04;6.80;;;3.42;;
1402;SDS011;696;48.546;9.896;2022-08-25T07:37:47;5.15;;;3.33;;
1402;SDS011;696;48.546;9.896;2022-08-25T07:40:16;7.18;;;4.28;;
1402;SDS011;696;48.546;9.896;2022-08-25T07:42:45;6.68;;;3.10;;
1402;SDS011;696;48.546;9.896;2022-08-25T07:45:11;7.70;;;3.42;;
1402;SDS011;696;48.546;9.896;2022-08-25T07:47:37;6.95;;;3.90;;
1402;SDS011;696;48.546;9.896;2022-08-25T07:50:03;6.45;;;3.10;;
1402;SDS011;696;48.546;9.896;2022-08-25T07:52:30;6.80;;;2.90;;
1402;SDS011;696;48.546;9.896;2022-08-25T07:54:55;7.05;;;3.85;;
1402;SDS011;696;48.546;9.896;2022-08-25T07:57:20;7.47;;;3.95;;
1402;SDS011;696;48.546;9.896;2022-08-25T07:59:47;13.50;;;3.70;;
1402;SDS011;696;48.546;9.896;2022-08-25T08:02:13;9.80;;;3.63;;
1402;SDS011;696;48.546;9.896;2022-08-25T08:04:38;7.82;;;3.45;;
1402;SDS011;696;48.546;9.896;2022-08-25T08:07:04;7.60;;;3.55;;
1402;SDS011;696;48.546;9.896;2022-08-25T08:09:30;22.85;;;4.07;;
1402;SDS011;696;48.546;9.896;2022-08-25T08:11:56;5.53;;;3.45;;
1402;SDS011;696;48.546;9.896;2022-08-25T08:14:21;4.68;;;2.65;;
1402;SDS011;696;48.546;9.896;2022-08-25T08:16:47;4.95;;;3.20;;
1402;SDS011;696;48.546;9.896;2022-08-25T08:19:13;5.68;;;3.00;;
1402;SDS011;696;48.546;9.896;2022-08-25T08:21:39;6.00;;;3.30;;
1402;SDS011;696;48.546;9.896;2022-08-25T08:24:04;5.18;;;3.15;;
1402;SDS011;696;48.546;9.896;2022-08-25T08:26:30;8.40;;;3.08;;
1402;SDS011;696;48.546;9.896;2022-08-25T08:28:56;5.88;;;3.17;;
1402;SDS011;696;48.546;9.896;2022-08-25T08:31:22;7.70;;;2.42;;
1402;SDS011;696;48.546;9.896;2022-08-25T08:33:50;4.40;;;2.40;;
1402;SDS011;696;48.546;9.896;2022-08-25T08:36:17;3.25;;;2.20;;
1402;SDS011;696;48.546;9.896;2022-08-25T08:38:43;3.05;;;1.52;;
1402;SDS011;696;48.546;9.896;2022-08-25T08:41:13;3.65;;;1.52;;
1402;SDS011;696;48.546;9.896;2022-08-25T08:46:48;2.88;;;2.08;;
1402;SDS011;696;48.546;9.896;2022-08-25T08:49:23;3.55;;;2.13;;
1402;SDS011;696;48.546;9.896;2022-08-25T08:51:55;3.22;;;1.80;;
1402;SDS011;696;48.546;9.896;2022-08-25T08:54:23;3.72;;;2.17;;
1402;SDS011;696;48.546;9.896;2022-08-25T08:56:53;4.05;;;1.77;;
1402;SDS011;696;48.546;9.896;2022-08-25T08:59:23;5.30;;;2.17;;
1402;SDS011;696;48.546;9.896;2022-08-25T09:01:53;3.47;;;1.70;;
1402;SDS011;696;48.546;9.896;2022-08-25T09:07:11;1.67;;;1.40;;
1402;SDS011;696;48.546;9.896;2022-08-25T09:09:39;3.70;;;2.13;;
1402;SDS011;696;48.546;9.896;2022-08-25T09:12:12;1.95;;;1.45;;
1402;SDS011;696;48.546;9.896;2022-08-25T09:17:27;2.25;;;1.95;;
1402;SDS011;696;48.546;9.896;2022-08-25T09:23:08;2.60;;;1.95;;
1402;SDS011;696;48.546;9.896;2022-08-25T09:31:23;3.28;;;1.85;;
1402;SDS011;696;48.546;9.896;2022-08-25T09:33:52;1.80;;;1.45;;
1402;SDS011;696;48.546;9.896;2022-08-25T09:36:19;4.40;;;1.85;;
1402;SDS011;696;48.546;9.896;2022-08-25T09:38:45;2.75;;;1.63;;
1402;SDS011;696;48.546;9.896;2022-08-25T09:41:10;3.83;;;1.60;;
1402;SDS011;696;48.546;9.896;2022-08-25T09:43:41;2.53;;;1.55;;
1402;SDS011;696;48.546;9.896;2022-08-25T09:51:30;3.28;;;1.98;;
1402;SDS011;696;48.546;9.896;2022-08-25T09:59:27;2.45;;;1.88;;
1402;SDS011;696;48.546;9.896;2022-08-25T10:01:57;3.15;;;2.33;;
1402;SDS011;696;48.546;9.896;2022-08-25T10:04:44;6.82;;;3.20;;
1402;SDS011;696;48.546;9.896;2022-08-25T10:10:03;5.43;;;2.30;;
1402;SDS011;696;48.546;9.896;2022-08-25T10:18:20;4.88;;;2.08;;
1402;SDS011;696;48.546;9.896;2022-08-25T10:20:59;4.20;;;1.98;;
1402;SDS011;696;48.546;9.896;2022-08-25T10:25:55;5.05;;;2.38;;
1402;SDS011;696;48.546;9.896;2022-08-25T10:28:26;2.22;;;1.23;;
1402;SDS011;696;48.546;9.896;2022-08-25T10:31:18;4.55;;;1.85;;
1402;SDS011;696;48.546;9.896;2022-08-25T10:41:59;3.08;;;1.98;;
1402;SDS011;696;48.546;9.896;2022-08-25T10:51:52;3.58;;;1.80;;
1402;SDS011;696;48.546;9.896;2022-08-25T10:56:17;3.22;;;1.55;;
1402;SDS011;696;48.546;9.896;2022-08-25T11:01:28;2.30;;;1.50;;
1402;SDS011;696;48.546;9.896;2022-08-25T11:04:11;2.20;;;1.40;;
1402;SDS011;696;48.546;9.896;2022-08-25T11:06:49;2.33;;;1.67;;
1402;SDS011;696;48.546;9.896;2022-08-25T11:09:21;4.03;;;1.67;;
1402;SDS011;696;48.546;9.896;2022-08-25T11:11:54;3.85;;;1.98;;
1402;SDS011;696;48.546;9.896;2022-08-25T11:16:59;4.32;;;2.42;;
1402;SDS011;696;48.546;9.896;2022-08-25T11:19:48;4.20;;;1.83;;
1402;SDS011;696;48.546;9.896;2022-08-25T11:22:32;3.83;;;1.50;;
1402;SDS011;696;48.546;9.896;2022-08-25T11:30:23;3.15;;;1.63;;
1402;SDS011;696;48.546;9.896;2022-08-25T11:32:50;2.00;;;1.23;;
1402;SDS011;696;48.546;9.896;2022-08-25T11:35:19;6.13;;;1.50;;
1402;SDS011;696;48.546;9.896;2022-08-25T11:40:34;3.05;;;1.80;;
1402;SDS011;696;48.546;9.896;2022-08-25T11:51:41;1.93;;;1.33;;
1402;SDS011;696;48.546;9.896;2022-08-25T11:56:49;1.98;;;1.27;;
1402;SDS011;696;48.546;9.896;2022-08-25T12:05:07;2.88;;;1.05;;
1402;SDS011;696;48.546;9.896;2022-08-25T12:10:11;1.13;;;1.02;;
1402;SDS011;696;48.546;9.896;2022-08-25T12:17:44;1.40;;;1.27;;
1402;SDS011;696;48.546;9.896;2022-08-25T12:20:11;2.28;;;1.45;;
1402;SDS011;696;48.546;9.896;2022-08-25T12:25:04;2.10;;;1.50;;
1402;SDS011;696;48.546;9.896;2022-08-25T12:33:07;1.70;;;1.05;;
1402;SDS011;696;48.546;9.896;2022-08-25T12:35:59;2.35;;;1.40;;
1402;SDS011;696;48.546;9.896;2022-08-25T12:38:46;2.80;;;1.50;;
1402;SDS011;696;48.546;9.896;2022-08-25T12:41:11;0.82;;;0.80;;
1402;SDS011;696;48.546;9.896;2022-08-25T12:43:42;1.00;;;0.90;;
1402;SDS011;696;48.546;9.896;2022-08-25T12:46:52;1.77;;;0.77;;
1402;SDS011;696;48.546;9.896;2022-08-25T12:53:58;1.50;;;1.17;;
1402;SDS011;696;48.546;9.896;2022-08-25T12:56:39;1.38;;;0.90;;
1402;SDS011;696;48.546;9.896;2022-08-25T12:59:19;4.68;;;0.90;;
1402;SDS011;696;48.546;9.896;2022-08-25T13:16:14;2.25;;;0.90;;
1402;SDS011;696;48.546;9.896;2022-08-25T13:18:47;1.42;;;0.77;;
1402;SDS011;696;48.546;9.896;2022-08-25T13:21:14;4.82;;;0.90;;
1402;SDS011;696;48.546;9.896;2022-08-25T13:23:41;1.42;;;0.70;;
1402;SDS011;696;48.546;9.896;2022-08-25T13:26:11;1.70;;;1.08;;
1402;SDS011;696;48.546;9.896;2022-08-25T13:28:39;1.30;;;0.90;;
1402;SDS011;696;48.546;9.896;2022-08-25T13:33:32;0.85;;;0.82;;
1402;SDS011;696;48.546;9.896;2022-08-25T13:35:58;1.63;;;0.90;;
1402;SDS011;696;48.546;9.896;2022-08-25T13:38:43;3.72;;;1.15;;
1402;SDS011;696;48.546;9.896;2022-08-25T13:41:10;1.67;;;0.98;;
1402;SDS011;696;48.546;9.896;2022-08-25T13:43:45;2.10;;;0.90;;
1402;SDS011;696;48.546;9.896;2022-08-25T13:46:10;2.08;;;1.00;;
1402;SDS011;696;48.546;9.896;2022-08-25T13:48:38;2.03;;;1.02;;
1402;SDS011;696;48.546;9.896;2022-08-25T13:51:23;1.50;;;0.93;;
1402;SDS011;696;48.546;9.896;2022-08-25T13:53:58;1.42;;;0.98;;
1402;SDS011;696;48.546;9.896;2022-08-25T13:56:35;1.63;;;0.90;;
1402;SDS011;696;48.546;9.896;2022-08-25T13:59:02;3.00;;;1.05;;
1402;SDS011;696;48.546;9.896;2022-08-25T14:01:31;3.30;;;1.23;;
1402;SDS011;696;48.546;9.896;2022-08-25T14:06:46;1.45;;;0.77;;
1402;SDS011;696;48.546;9.896;2022-08-25T14:09:13;2.38;;;0.80;;
1402;SDS011;696;48.546;9.896;2022-08-25T14:11:45;1.30;;;1.13;;
1402;SDS011;696;48.546;9.896;2022-08-25T14:16:47;1.67;;;0.88;;
1402;SDS011;696;48.546;9.896;2022-08-25T14:19:18;1.58;;;1.15;;
1402;SDS011;696;48.546;9.896;2022-08-25T14:21:45;1.30;;;0.88;;
1402;SDS011;696;48.546;9.896;2022-08-25T14:24:18;3.83;;;1.13;;
1402;SDS011;696;48.546;9.896;2022-08-25T14:26:46;1.40;;;0.88;;
1402;SDS011;696;48.546;9.896;2022-08-25T14:29:12;1.27;;;0.98;;
1402;SDS011;696;48.546;9.896;2022-08-25T14:31:39;1.65;;;0.80;;
1402;SDS011;696;48.546;9.896;2022-08-25T14:34:17;2.60;;;0.98;;
1402;SDS011;696;48.546;9.896;2022-08-25T14:36:45;3.47;;;1.10;;
1402;SDS011;696;48.546;9.896;2022-08-25T14:39:12;2.42;;;1.10;;
1402;SDS011;696;48.546;9.896;2022-08-25T14:41:38;1.88;;;1.13;;
1402;SDS011;696;48.546;9.896;2022-08-25T14:44:05;1.08;;;0.98;;
1402;SDS011;696;48.546;9.896;2022-08-25T14:46:33;1.98;;;1.20;;
1402;SDS011;696;48.546;9.896;2022-08-25T14:49:01;3.17;;;1.30;;
1402;SDS011;696;48.546;9.896;2022-08-25T14:51:29;0.80;;;0.80;;
1402;SDS011;696;48.546;9.896;2022-08-25T14:53:59;1.00;;;0.65;;
1402;SDS011;696;48.546;9.896;2022-08-25T14:56:27;1.60;;;0.85;;
1402;SDS011;696;48.546;9.896;2022-08-25T14:58:53;1.80;;;0.98;;
1402;SDS011;696;48.546;9.896;2022-08-25T15:01:19;0.65;;;0.65;;
1402;SDS011;696;48.546;9.896;2022-08-25T15:03:46;1.17;;;0.98;;
1402;SDS011;696;48.546;9.896;2022-08-25T15:06:13;1.63;;;0.90;;
1402;SDS011;696;48.546;9.896;2022-08-25T15:08:39;0.60;;;0.60;;
1402;SDS011;696;48.546;9.896;2022-08-25T15:11:24;2.70;;;1.05;;
1402;SDS011;696;48.546;9.896;2022-08-25T15:13:51;2.05;;;1.15;;
1402;SDS011;696;48.546;9.896;2022-08-25T15:16:21;2.88;;;1.35;;
1402;SDS011;696;48.546;9.896;2022-08-25T15:18:48;2.95;;;0.80;;
1402;SDS011;696;48.546;9.896;2022-08-25T15:21:14;2.20;;;1.05;;
1402;SDS011;696;48.546;9.896;2022-08-25T15:23:39;0.77;;;0.60;;
1402;SDS011;696;48.546;9.896;2022-08-25T15:26:05;1.15;;;0.90;;
1402;SDS011;696;48.546;9.896;2022-08-25T15:28:33;1.17;;;1.00;;
1402;SDS011;696;48.546;9.896;2022-08-25T15:30:58;0.40;;;0.40;;
1402;SDS011;696;48.546;9.896;2022-08-25T15:33:24;2.58;;;0.93;;
1402;SDS011;696;48.546;9.896;2022-08-25T15:35:50;2.97;;;1.05;;
1402;SDS011;696;48.546;9.896;2022-08-25T15:38:16;1.20;;;0.90;;
1402;SDS011;696;48.546;9.896;2022-08-25T15:40:42;0.88;;;0.77;;
1402;SDS011;696;48.546;9.896;2022-08-25T15:43:08;1.83;;;1.23;;
1402;SDS011;696;48.546;9.896;2022-08-25T15:45:33;1.30;;;1.20;;
1402;SDS011;696;48.546;9.896;2022-08-25T15:47:59;1.27;;;0.98;;
1402;SDS011;696;48.546;9.896;2022-08-25T15:50:25;0.93;;;0.63;;
1402;SDS011;696;48.546;9.896;2022-08-25T15:52:50;1.13;;;1.00;;
1402;SDS011;696;48.546;9.896;2022-08-25T15:55:16;1.35;;;0.90;;
1402;SDS011;696;48.546;9.896;2022-08-25T15:57:41;1.13;;;1.02;;
1402;SDS011;696;48.546;9.896;2022-08-25T16:00:08;2.40;;;0.90;;
1402;SDS011;696;48.546;9.896;2022-08-25T16:02:37;1.45;;;1.02;;
1402;SDS011;696;48.546;9.896;2022-08-25T16:05:04;0.98;;;0.85;;
1402;SDS011;696;48.546;9.896;2022-08-25T16:07:30;1.10;;;1.00;;
1402;SDS011;696;48.546;9.896;2022-08-25T16:09:56;0.95;;;0.75;;
1402;SDS011;696;48.546;9.896;2022-08-25T16:12:22;3.60;;;0.77;;
1402;SDS011;696;48.546;9.896;2022-08-25T16:14:48;5.18;;;1.10;;
1402;SDS011;696;48.546;9.896;2022-08-25T16:17:14;2.33;;;1.40;;
1402;SDS011;696;48.546;9.896;2022-08-25T16:19:39;1.00;;;0.90;;
1402;SDS011;696;48.546;9.896;2022-08-25T16:22:05;1.48;;;1.08;;
1402;SDS011;696;48.546;9.896;2022-08-25T16:24:30;2.95;;;0.70;;
1402;SDS011;696;48.546;9.896;2022-08-25T16:26:56;2.75;;;1.50;;
1402;SDS011;696;48.546;9.896;2022-08-25T16:29:28;2.13;;;1.23;;
1402;SDS011;696;48.546;9.896;2022-08-25T16:31:55;4.15;;;1.58;;
1402;SDS011;696;48.546;9.896;2022-08-25T16:34:22;1.27;;;0.85;;
1402;SDS011;696;48.546;9.896;2022-08-25T16:36:49;0.80;;;0.80;;
1402;SDS011;696;48.546;9.896;2022-08-25T16:39:14;1.83;;;0.90;;
1402;SDS011;696;48.546;9.896;2022-08-25T16:41:40;2.22;;;1.20;;
1402;SDS011;696;48.546;9.896;2022-08-25T16:44:05;1.10;;;0.93;;
1402;SDS011;696;48.546;9.896;2022-08-25T16:46:33;3.22;;;1.35;;
1402;SDS011;696;48.546;9.896;2022-08-25T16:49:00;1.20;;;0.90;;
1402;SDS011;696;48.546;9.896;2022-08-25T16:51:25;1.88;;;0.80;;
1402;SDS011;696;48.546;9.896;2022-08-25T16:53:51;1.30;;;1.10;;
1402;SDS011;696;48.546;9.896;2022-08-25T16:56:35;4.07;;;1.58;;
1402;SDS011;696;48.546;9.896;2022-08-25T16:59:01;1.10;;;0.93;;
1402;SDS011;696;48.546;9.896;2022-08-25T17:01:28;2.22;;;1.13;;
1402;SDS011;696;48.546;9.896;2022-08-25T17:03:55;1.33;;;1.23;;
1402;SDS011;696;48.546;9.896;2022-08-25T17:06:22;5.80;;;1.23;;
1402;SDS011;696;48.546;9.896;2022-08-25T17:08:48;1.13;;;0.73;;
1402;SDS011;696;48.546;9.896;2022-08-25T17:11:18;1.42;;;1.08;;
1402;SDS011;696;48.546;9.896;2022-08-25T17:13:46;1.10;;;0.88;;
1402;SDS011;696;48.546;9.896;2022-08-25T17:16:16;2.08;;;1.00;;
1402;SDS011;696;48.546;9.896;2022-08-25T17:18:43;0.70;;;0.70;;
1402;SDS011;696;48.546;9.896;2022-08-25T17:21:09;2.38;;;1.17;;
1402;SDS011;696;48.546;9.896;2022-08-25T17:23:36;1.55;;;1.02;;
1402;SDS011;696;48.546;9.896;2022-08-25T17:26:03;1.35;;;1.13;;
1402;SDS011;696;48.546;9.896;2022-08-25T17:28:28;1.42;;;1.20;;
1402;SDS011;696;48.546;9.896;2022-08-25T17:30:54;2.58;;;1.27;;
1402;SDS011;696;48.546;9.896;2022-08-25T17:33:20;1.55;;;1.15;;
1402;SDS011;696;48.546;9.896;2022-08-25T17:35:46;1.67;;;0.93;;
1402;SDS011;696;48.546;9.896;2022-08-25T17:38:14;1.92;;;1.15;;
1402;SDS011;696;48.546;9.896;2022-08-25T17:40:40;2.60;;;1.08;;
1402;SDS011;696;48.546;9.896;2022-08-25T17:43:07;2.03;;;1.00;;
1402;SDS011;696;48.546;9.896;2022-08-25T17:45:34;1.40;;;1.10;;
1402;SDS011;696;48.546;9.896;2022-08-25T17:48:00;3.38;;;1.92;;
1402;SDS011;696;48.546;9.896;2022-08-25T17:50:26;1.83;;;1.08;;
1402;SDS011;696;48.546;9.896;2022-08-25T17:52:51;1.73;;;1.23;;